sensor_id;sensor_type;location;lat;lon;timestamp;pressure;altitude;pressure_sealevel;temperature;humidity
51829;BME280;37881;48.024;8.774;2023-02-18T00:00:27;94929.94;;;9.37;100.00
51829;BME280;37881;48.024;8.774;2023-02-18T00:02:54;94918.28;;;9.48;100.00
51829;BME280;37881;48.024;8.774;2023-02-18T00:05:23;94919.47;;;9.54;100.00
51829;BME280;37881;48.024;8.774;2023-02-18T00:07:50;94930.75;;;9.45;100.00
51829;BME280;37881;48.024;8.774;2023-02-18T00:10:17;94920.59;;;9.42;100.00
51829;BME280;37881;48.024;8.774;2023-02-18T00:12:44;94921.00;;;9.44;100.00
51829;BME280;37881;48.024;8.774;2023-02-18T00:15:11;94923.34;;;9.49;100.00
51829;BME280;37881;48.024;8.774;2023-02-18T00:17:38;94922.56;;;9.49;100.00
51829;BME280;37881;48.024;8.774;2023-02-18T00:20:05;94923.75;;;9.48;100.00
51829;BME280;37881;48.024;8.774;2023-02-18T00:22:32;94918.69;;;9.50;100.00
51829;BME280;37881;48.024;8.774;2023-02-18T00:24:59;94919.44;;;9.50;100.00
51829;BME280;37881;48.024;8.774;2023-02-18T00:27:26;94908.50;;;9.54;100.00
51829;BME280;37881;48.024;8.774;2023-02-18T00:29:52;94912.75;;;9.40;100.00
51829;BME280;37881;48.024;8.774;2023-02-18T00:32:19;94912.69;;;9.30;100.00
51829;BME280;37881;48.024;8.774;2023-02-18T00:34:46;94913.91;;;9.43;100.00
51829;BME280;37881;48.024;8.774;2023-02-18T00:37:12;94910.84;;;9.48;100.00
51829;BME280;37881;48.024;8.774;2023-02-18T00:39:39;94906.91;;;9.46;100.00
51829;BME280;37881;48.024;8.774;2023-02-18T00:42:06;94910.81;;;9.45;100.00
51829;BME280;37881;48.024;8.774;2023-02-18T00:44:32;94909.66;;;9.49;100.00
51829;BME280;37881;48.024;8.774;2023-02-18T00:46:59;94898.53;;;9.20;100.00
51829;BME280;37881;48.024;8.774;2023-02-18T00:49:26;94895.44;;;9.29;100.00
51829;BME280;37881;48.024;8.774;2023-02-18T00:51:53;94892.72;;;9.29;100.00
51829;BME280;37881;48.024;8.774;2023-02-18T00:54:19;94885.69;;;9.35;100.00
51829;BME280;37881;48.024;8.774;2023-02-18T00:56:46;94884.16;;;9.34;100.00
51829;BME280;37881;48.024;8.774;2023-02-18T00:59:13;94875.47;;;9.25;100.00
51829;BME280;37881;48.024;8.774;2023-02-18T01:01:39;94875.09;;;9.19;100.00
51829;BME280;37881;48.024;8.774;2023-02-18T01:04:06;94880.56;;;9.23;100.00
51829;BME280;37881;48.024;8.774;2023-02-18T01:06:33;94885.31;;;9.33;100.00
51829;BME280;37881;48.024;8.774;2023-02-18T01:09:00;94886.84;;;9.31;100.00
51829;BME280;37881;48.024;8.774;2023-02-18T01:11:27;94882.53;;;9.26;100.00
51829;BME280;37881;48.024;8.774;2023-02-18T01:13:53;94882.53;;;9.26;100.00
51829;BME280;37881;48.024;8.774;2023-02-18T01:16:20;94879.63;;;9.01;100.00
51829;BME280;37881;48.024;8.774;2023-02-18T01:18:47;94874.19;;;9.05;100.00
51829;BME280;37881;48.024;8.774;2023-02-18T01:21:14;94878.97;;;9.18;100.00
51829;BME280;37881;48.024;8.774;2023-02-18T01:23:41;94872.63;;;9.04;100.00
51829;BME280;37881;48.024;8.774;2023-02-18T01:26:09;94861.34;;;9.12;100.00
51829;BME280;37881;48.024;8.774;2023-02-18T01:28:38;94855.09;;;9.19;100.00
51829;BME280;37881;48.024;8.774;2023-02-18T01:31:08;94858.53;;;9.05;100.00
51829;BME280;37881;48.024;8.774;2023-02-18T01:33:36;94862.50;;;9.08;100.00
51829;BME280;37881;48.024;8.774;2023-02-18T01:36:03;94867.56;;;9.09;100.00
51829;BME280;37881;48.024;8.774;2023-02-18T01:38:30;94857.38;;;9.03;100.00
51829;BME280;37881;48.024;8.774;2023-02-18T01:40:57;94856.63;;;9.06;100.00
51829;BME280;37881;48.024;8.774;2023-02-18T01:43:23;94849.56;;;9.05;100.00
51829;BME280;37881;48.024;8.774;2023-02-18T01:46:01;94856.97;;;9.00;100.00
51829;BME280;37881;48.024;8.774;2023-02-18T01:48:35;94858.91;;;9.00;100.00
51829;BME280;37881;48.024;8.774;2023-02-18T01:51:12;94865.19;;;9.00;100.00
51829;BME280;37881;48.024;8.774;2023-02-18T01:56:24;94856.56;;;8.98;100.00
51829;BME280;37881;48.024;8.774;2023-02-18T01:58:53;94854.59;;;8.95;100.00
51829;BME280;37881;48.024;8.774;2023-02-18T02:01:20;94844.81;;;8.94;100.00
51829;BME280;37881;48.024;8.774;2023-02-18T02:03:47;94841.31;;;8.97;100.00
51829;BME280;37881;48.024;8.774;2023-02-18T02:06:19;94847.53;;;8.94;100.00
51829;BME280;37881;48.024;8.774;2023-02-18T02:08:48;94849.91;;;8.96;100.00
51829;BME280;37881;48.024;8.774;2023-02-18T02:25:55;94827.63;;;8.97;100.00
51829;BME280;37881;48.024;8.774;2023-02-18T02:30:57;94820.19;;;8.98;100.00
51829;BME280;37881;48.024;8.774;2023-02-18T02:36:30;94818.59;;;8.93;100.00
51829;BME280;37881;48.024;8.774;2023-02-18T02:41:51;94817.44;;;8.98;100.00
51829;BME280;37881;48.024;8.774;2023-02-18T02:44:34;94824.09;;;9.00;100.00
51829;BME280;37881;48.024;8.774;2023-02-18T02:50:25;94815.97;;;9.15;100.00
51829;BME280;37881;48.024;8.774;2023-02-18T02:52:59;94812.41;;;9.04;100.00
51829;BME280;37881;48.024;8.774;2023-02-18T02:55:27;94813.97;;;9.05;100.00
51829;BME280;37881;48.024;8.774;2023-02-18T02:57:55;94814.75;;;9.09;100.00
51829;BME280;37881;48.024;8.774;2023-02-18T03:00:55;94812.03;;;9.09;100.00
51829;BME280;37881;48.024;8.774;2023-02-18T03:06:00;94813.19;;;9.04;100.00
51829;BME280;37881;48.024;8.774;2023-02-18T03:11:20;94814.75;;;9.09;100.00
51829;BME280;37881;48.024;8.774;2023-02-18T03:13:52;94803.81;;;9.09;100.00
51829;BME280;37881;48.024;8.774;2023-02-18T03:21:42;94810.06;;;9.06;100.00
51829;BME280;37881;48.024;8.774;2023-02-18T03:24:23;94806.53;;;9.05;100.00
51829;BME280;37881;48.024;8.774;2023-02-18T03:26:58;94800.72;;;9.14;100.00
51829;BME280;37881;48.024;8.774;2023-02-18T03:29:28;94806.56;;;9.12;100.00
51829;BME280;37881;48.024;8.774;2023-02-18T03:31:59;94807.69;;;9.04;100.00
51829;BME280;37881;48.024;8.774;2023-02-18T03:34:30;94805.78;;;9.12;100.00
51829;BME280;37881;48.024;8.774;2023-02-18T03:36:59;94806.56;;;9.12;100.00
51829;BME280;37881;48.024;8.774;2023-02-18T03:39:29;94807.69;;;9.04;100.00
51829;BME280;37881;48.024;8.774;2023-02-18T03:41:56;94815.16;;;9.11;100.00
51829;BME280;37881;48.024;8.774;2023-02-18T03:44:24;94812.06;;;9.16;100.00
51829;BME280;37881;48.024;8.774;2023-02-18T03:46:51;94813.25;;;9.18;100.00
51829;BME280;37881;48.024;8.774;2023-02-18T03:49:18;94811.28;;;9.19;100.00
51829;BME280;37881;48.024;8.774;2023-02-18T03:51:44;94803.84;;;9.16;100.00
51829;BME280;37881;48.024;8.774;2023-02-18T03:54:11;94805.75;;;9.05;100.00
51829;BME280;37881;48.024;8.774;2023-02-18T03:56:39;94802.19;;;9.00;100.00
51829;BME280;37881;48.024;8.774;2023-02-18T03:59:07;94800.63;;;8.96;100.00
51829;BME280;37881;48.024;8.774;2023-02-18T04:01:34;94797.91;;;8.99;100.00
51829;BME280;37881;48.024;8.774;2023-02-18T04:04:01;94788.88;;;8.92;100.00
51829;BME280;37881;48.024;8.774;2023-02-18T04:06:28;94789.28;;;9.01;100.00
51829;BME280;37881;48.024;8.774;2023-02-18T04:08:55;94789.31;;;8.97;100.00
51829;BME280;37881;48.024;8.774;2023-02-18T04:11:22;94781.78;;;8.84;100.00
51829;BME280;37881;48.024;8.774;2023-02-18T04:13:48;94788.41;;;8.83;100.00
51829;BME280;37881;48.024;8.774;2023-02-18T04:16:15;94784.16;;;8.89;100.00
51829;BME280;37881;48.024;8.774;2023-02-18T04:18:42;94782.94;;;8.83;100.00
51829;BME280;37881;48.024;8.774;2023-02-18T04:21:08;94779.38;;;8.75;100.00
51829;BME280;37881;48.024;8.774;2023-02-18T04:23:35;94784.06;;;8.74;100.00
51829;BME280;37881;48.024;8.774;2023-02-18T04:26:02;94785.59;;;8.65;100.00
51829;BME280;37881;48.024;8.774;2023-02-18T04:28:29;94794.94;;;8.60;100.00
51829;BME280;37881;48.024;8.774;2023-02-18T04:30:55;94792.19;;;8.56;100.00
51829;BME280;37881;48.024;8.774;2023-02-18T04:33:22;94794.88;;;8.53;100.00
51829;BME280;37881;48.024;8.774;2023-02-18T04:35:49;94789.41;;;8.49;100.00
51829;BME280;37881;48.024;8.774;2023-02-18T04:38:15;94787.84;;;8.52;100.00
51829;BME280;37881;48.024;8.774;2023-02-18T04:40:42;94780.06;;;8.54;100.00
51829;BME280;37881;48.024;8.774;2023-02-18T04:43:09;94782.66;;;8.39;100.00
51829;BME280;37881;48.024;8.774;2023-02-18T04:45:35;94780.31;;;8.38;100.00
51829;BME280;37881;48.024;8.774;2023-02-18T04:48:03;94781.09;;;8.38;100.00
51829;BME280;37881;48.024;8.774;2023-02-18T04:50:29;94774.47;;;8.39;100.00
51829;BME280;37881;48.024;8.774;2023-02-18T04:52:56;94775.97;;;8.37;100.00
51829;BME280;37881;48.024;8.774;2023-02-18T04:55:23;94774.03;;;8.34;100.00
51829;BME280;37881;48.024;8.774;2023-02-18T04:57:49;94773.66;;;8.35;100.00
51829;BME280;37881;48.024;8.774;2023-02-18T05:00:18;94768.59;;;8.37;100.00
51829;BME280;37881;48.024;8.774;2023-02-18T05:02:45;94766.16;;;8.25;100.00
51829;BME280;37881;48.024;8.774;2023-02-18T05:05:12;94770.84;;;8.28;100.00
51829;BME280;37881;48.024;8.774;2023-02-18T05:07:39;94768.91;;;8.29;100.00
51829;BME280;37881;48.024;8.774;2023-02-18T05:10:14;94766.97;;;8.29;100.00
51829;BME280;37881;48.024;8.774;2023-02-18T05:12:41;94763.81;;;8.27;100.00
51829;BME280;37881;48.024;8.774;2023-02-18T05:15:08;94765.78;;;8.30;100.00
51829;BME280;37881;48.024;8.774;2023-02-18T05:17:35;94757.16;;;8.25;100.00
51829;BME280;37881;48.024;8.774;2023-02-18T05:20:02;94757.50;;;8.19;100.00
51829;BME280;37881;48.024;8.774;2023-02-18T05:22:29;94757.13;;;8.17;100.00
51829;BME280;37881;48.024;8.774;2023-02-18T05:24:56;94763.72;;;8.16;100.00
51829;BME280;37881;48.024;8.774;2023-02-18T05:27:22;94760.22;;;8.16;100.00
51829;BME280;37881;48.024;8.774;2023-02-18T05:29:49;94764.13;;;8.15;100.00
51829;BME280;37881;48.024;8.774;2023-02-18T05:32:15;94759.47;;;8.19;100.00
51829;BME280;37881;48.024;8.774;2023-02-18T05:34:42;94755.16;;;8.18;100.00
51829;BME280;37881;48.024;8.774;2023-02-18T05:37:09;94752.81;;;8.20;100.00
51829;BME280;37881;48.024;8.774;2023-02-18T05:39:36;94758.25;;;8.16;100.00
51829;BME280;37881;48.024;8.774;2023-02-18T05:42:03;94753.19;;;8.15;100.00
51829;BME280;37881;48.024;8.774;2023-02-18T05:44:29;94764.53;;;8.20;100.00
51829;BME280;37881;48.024;8.774;2023-02-18T05:47:08;94754.00;;;8.23;100.00
51829;BME280;37881;48.024;8.774;2023-02-18T05:49:38;94759.50;;;8.26;100.00
51829;BME280;37881;48.024;8.774;2023-02-18T05:52:05;94756.00;;;8.26;100.00
51829;BME280;37881;48.024;8.774;2023-02-18T05:54:33;94762.25;;;8.26;100.00
51829;BME280;37881;48.024;8.774;2023-02-18T05:57:00;94768.50;;;8.27;100.00
51829;BME280;37881;48.024;8.774;2023-02-18T05:59:27;94759.16;;;8.31;100.00
51829;BME280;37881;48.024;8.774;2023-02-18T06:01:55;94765.03;;;8.33;100.00
51829;BME280;37881;48.024;8.774;2023-02-18T06:04:22;94761.91;;;8.31;100.00
51829;BME280;37881;48.024;8.774;2023-02-18T06:06:48;94759.09;;;8.24;100.00
51829;BME280;37881;48.024;8.774;2023-02-18T06:09:15;94753.94;;;8.12;100.00
51829;BME280;37881;48.024;8.774;2023-02-18T06:11:42;94754.34;;;8.14;100.00
51829;BME280;37881;48.024;8.774;2023-02-18T06:14:09;94745.41;;;8.17;100.00
51829;BME280;37881;48.024;8.774;2023-02-18T06:16:35;94750.88;;;8.17;100.00
51829;BME280;37881;48.024;8.774;2023-02-18T06:19:02;94756.72;;;8.15;100.00
51829;BME280;37881;48.024;8.774;2023-02-18T06:21:29;94756.69;;;8.12;100.00
51829;BME280;37881;48.024;8.774;2023-02-18T06:23:56;94745.78;;;8.15;100.00
51829;BME280;37881;48.024;8.774;2023-02-18T06:26:23;94750.03;;;8.09;100.00
51829;BME280;37881;48.024;8.774;2023-02-18T06:28:49;94753.13;;;8.08;100.00
51829;BME280;37881;48.024;8.774;2023-02-18T06:31:16;94755.91;;;8.11;100.00
51829;BME280;37881;48.024;8.774;2023-02-18T06:33:43;94753.09;;;8.04;100.00
51829;BME280;37881;48.024;8.774;2023-02-18T06:36:11;94745.63;;;7.97;100.00
51829;BME280;37881;48.024;8.774;2023-02-18T06:38:40;94744.84;;;7.97;100.00
51829;BME280;37881;48.024;8.774;2023-02-18T06:41:08;94741.38;;;8.04;100.00
51829;BME280;37881;48.024;8.774;2023-02-18T06:43:36;94756.59;;;8.05;100.00
51829;BME280;37881;48.024;8.774;2023-02-18T06:46:03;94752.75;;;8.09;100.00
51829;BME280;37881;48.024;8.774;2023-02-18T06:48:30;94750.03;;;8.09;100.00
51829;BME280;37881;48.024;8.774;2023-02-18T06:50:57;94747.66;;;8.08;100.00
51829;BME280;37881;48.024;8.774;2023-02-18T06:53:24;94751.97;;;8.12;100.00
51829;BME280;37881;48.024;8.774;2023-02-18T06:55:51;94749.22;;;8.05;100.00
51829;BME280;37881;48.024;8.774;2023-02-18T06:58:18;94745.78;;;8.15;100.00
51829;BME280;37881;48.024;8.774;2023-02-18T07:00:44;94746.94;;;8.18;100.00
51829;BME280;37881;48.024;8.774;2023-02-18T07:03:14;94757.16;;;8.21;100.00
51829;BME280;37881;48.024;8.774;2023-02-18T07:05:41;94744.63;;;8.20;100.00
51829;BME280;37881;48.024;8.774;2023-02-18T07:08:08;94747.44;;;8.34;100.00
51829;BME280;37881;48.024;8.774;2023-02-18T07:10:35;94753.81;;;8.46;100.00
51829;BME280;37881;48.024;8.774;2023-02-18T07:13:02;94751.50;;;8.51;100.00
51829;BME280;37881;48.024;8.774;2023-02-18T07:15:28;94756.22;;;8.58;100.00
51829;BME280;37881;48.024;8.774;2023-02-18T07:17:55;94755.06;;;8.55;100.00
51829;BME280;37881;48.024;8.774;2023-02-18T07:20:22;94753.50;;;8.58;100.00
51829;BME280;37881;48.024;8.774;2023-02-18T07:22:49;94746.84;;;8.55;100.00
51829;BME280;37881;48.024;8.774;2023-02-18T07:25:16;94751.59;;;8.66;100.00
51829;BME280;37881;48.024;8.774;2023-02-18T07:27:43;94751.16;;;8.60;100.00
51829;BME280;37881;48.024;8.774;2023-02-18T07:30:10;94759.81;;;8.69;100.00
51829;BME280;37881;48.024;8.774;2023-02-18T07:32:37;94758.66;;;8.70;100.00
51829;BME280;37881;48.024;8.774;2023-02-18T07:35:04;94757.94;;;8.84;100.00
51829;BME280;37881;48.024;8.774;2023-02-18T07:37:31;94756.78;;;8.89;100.00
51829;BME280;37881;48.024;8.774;2023-02-18T07:39:58;94755.59;;;8.86;100.00
51829;BME280;37881;48.024;8.774;2023-02-18T07:42:25;94759.97;;;9.02;100.00
51829;BME280;37881;48.024;8.774;2023-02-18T07:44:52;94760.47;;;9.29;100.00
51829;BME280;37881;48.024;8.774;2023-02-18T07:47:18;94758.50;;;9.26;100.00
51829;BME280;37881;48.024;8.774;2023-02-18T07:49:45;94763.66;;;9.52;100.00
51829;BME280;37881;48.024;8.774;2023-02-18T07:52:14;94761.72;;;9.64;100.00
51829;BME280;37881;48.024;8.774;2023-02-18T07:54:41;94765.66;;;9.88;100.00
51829;BME280;37881;48.024;8.774;2023-02-18T07:57:08;94759.41;;;10.48;100.00
51829;BME280;37881;48.024;8.774;2023-02-18T07:59:35;94755.84;;;10.80;100.00
51829;BME280;37881;48.024;8.774;2023-02-18T08:02:03;94754.34;;;11.56;100.00
51829;BME280;37881;48.024;8.774;2023-02-18T08:04:31;94751.31;;;12.07;100.00
51829;BME280;37881;48.024;8.774;2023-02-18T08:06:58;94750.41;;;12.66;92.86
51829;BME280;37881;48.024;8.774;2023-02-18T08:09:24;94750.09;;;12.56;90.54
51829;BME280;37881;48.024;8.774;2023-02-18T08:11:51;94762.28;;;12.55;91.85
51829;BME280;37881;48.024;8.774;2023-02-18T08:14:18;94760.00;;;12.47;92.45
51829;BME280;37881;48.024;8.774;2023-02-18T08:16:44;94761.44;;;12.66;91.15
51829;BME280;37881;48.024;8.774;2023-02-18T08:19:11;94761.38;;;12.28;92.51
51829;BME280;37881;48.024;8.774;2023-02-18T08:21:38;94755.91;;;11.61;97.68
51829;BME280;37881;48.024;8.774;2023-02-18T08:24:05;94762.97;;;11.58;99.39
51829;BME280;37881;48.024;8.774;2023-02-18T08:26:33;94762.66;;;11.49;100.00
51829;BME280;37881;48.024;8.774;2023-02-18T08:29:00;94745.88;;;11.26;100.00
51829;BME280;37881;48.024;8.774;2023-02-18T08:31:28;94758.47;;;11.19;100.00
51829;BME280;37881;48.024;8.774;2023-02-18T08:33:57;94753.34;;;11.25;100.00
51829;BME280;37881;48.024;8.774;2023-02-18T08:36:24;94754.13;;;11.18;100.00
51829;BME280;37881;48.024;8.774;2023-02-18T08:38:51;94748.69;;;11.85;99.26
51829;BME280;37881;48.024;8.774;2023-02-18T08:41:18;94753.88;;;11.69;98.88
51829;BME280;37881;48.024;8.774;2023-02-18T08:43:45;94752.84;;;11.45;98.53
51829;BME280;37881;48.024;8.774;2023-02-18T08:46:12;94749.06;;;11.10;100.00
51829;BME280;37881;48.024;8.774;2023-02-18T08:48:43;94750.50;;;11.43;100.00
51829;BME280;37881;48.024;8.774;2023-02-18T08:51:15;94753.75;;;11.16;100.00
51829;BME280;37881;48.024;8.774;2023-02-18T08:53:42;94749.81;;;11.21;99.98
51829;BME280;37881;48.024;8.774;2023-02-18T08:56:09;94740.00;;;11.24;100.00
51829;BME280;37881;48.024;8.774;2023-02-18T08:58:36;94749.91;;;11.03;100.00
51829;BME280;37881;48.024;8.774;2023-02-18T09:01:07;94741.22;;;11.15;100.00
51829;BME280;37881;48.024;8.774;2023-02-18T09:03:35;94745.88;;;11.29;100.00
51829;BME280;37881;48.024;8.774;2023-02-18T09:06:02;94745.16;;;11.11;100.00
51829;BME280;37881;48.024;8.774;2023-02-18T09:08:29;94748.75;;;10.97;100.00
51829;BME280;37881;48.024;8.774;2023-02-18T09:10:57;94753.50;;;10.71;100.00
51829;BME280;37881;48.024;8.774;2023-02-18T09:13:26;94750.78;;;10.68;100.00
51829;BME280;37881;48.024;8.774;2023-02-18T09:15:57;94747.59;;;10.80;100.00
51829;BME280;37881;48.024;8.774;2023-02-18T09:18:24;94750.38;;;10.69;100.00
51829;BME280;37881;48.024;8.774;2023-02-18T09:20:55;94748.41;;;10.73;100.00
51829;BME280;37881;48.024;8.774;2023-02-18T09:23:22;94749.91;;;10.92;100.00
51829;BME280;37881;48.024;8.774;2023-02-18T09:25:49;94745.66;;;10.81;100.00
51829;BME280;37881;48.024;8.774;2023-02-18T09:28:16;94743.69;;;10.85;100.00
51829;BME280;37881;48.024;8.774;2023-02-18T09:30:42;94741.75;;;10.71;100.00
51829;BME280;37881;48.024;8.774;2023-02-18T09:33:09;94743.31;;;10.72;100.00
51829;BME280;37881;48.024;8.774;2023-02-18T09:35:43;94739.75;;;10.82;100.00
51829;BME280;37881;48.024;8.774;2023-02-18T09:38:13;94740.16;;;10.77;100.00
51829;BME280;37881;48.024;8.774;2023-02-18T09:40:49;94737.81;;;10.68;100.00
51829;BME280;37881;48.024;8.774;2023-02-18T09:43:25;94738.19;;;10.77;100.00
51829;BME280;37881;48.024;8.774;2023-02-18T09:45:55;94731.94;;;10.81;100.00
51829;BME280;37881;48.024;8.774;2023-02-18T09:48:26;94736.69;;;10.55;100.00
51829;BME280;37881;48.024;8.774;2023-02-18T09:50:54;94739.03;;;10.49;100.00
51829;BME280;37881;48.024;8.774;2023-02-18T09:53:22;94737.50;;;10.37;100.00
51829;BME280;37881;48.024;8.774;2023-02-18T09:55:51;94737.06;;;10.57;100.00
51829;BME280;37881;48.024;8.774;2023-02-18T09:58:32;94745.69;;;10.52;100.00
51829;BME280;37881;48.024;8.774;2023-02-18T10:01:14;94747.69;;;10.41;100.00
51829;BME280;37881;48.024;8.774;2023-02-18T10:03:44;94747.28;;;10.42;100.00
51829;BME280;37881;48.024;8.774;2023-02-18T10:06:19;94747.66;;;10.55;100.00
51829;BME280;37881;48.024;8.774;2023-02-18T10:08:48;94744.84;;;10.84;100.00
51829;BME280;37881;48.024;8.774;2023-02-18T10:11:30;94745.66;;;10.77;100.00
51829;BME280;37881;48.024;8.774;2023-02-18T10:13:58;94743.34;;;10.57;100.00
51829;BME280;37881;48.024;8.774;2023-02-18T10:16:29;94731.94;;;10.66;100.00
51829;BME280;37881;48.024;8.774;2023-02-18T10:18:59;94733.91;;;10.62;100.00
51829;BME280;37881;48.024;8.774;2023-02-18T10:21:28;94723.31;;;10.68;100.00
51829;BME280;37881;48.024;8.774;2023-02-18T10:26:46;94723.31;;;10.75;100.00
51829;BME280;37881;48.024;8.774;2023-02-18T10:29:16;94700.94;;;10.76;100.00
51829;BME280;37881;48.024;8.774;2023-02-18T10:32:05;94714.97;;;10.96;100.00
51829;BME280;37881;48.024;8.774;2023-02-18T10:43:34;94701.50;;;11.27;100.00
51829;BME280;37881;48.024;8.774;2023-02-18T10:46:40;94691.69;;;11.30;100.00
51829;BME280;37881;48.024;8.774;2023-02-18T10:51:46;94672.44;;;11.33;100.00
51829;BME280;37881;48.024;8.774;2023-02-18T10:54:16;94674.25;;;11.51;100.00
51829;BME280;37881;48.024;8.774;2023-02-18T10:56:48;94685.28;;;12.03;96.76
51829;BME280;37881;48.024;8.774;2023-02-18T10:59:19;94688.56;;;11.87;96.08
51829;BME280;37881;48.024;8.774;2023-02-18T11:01:54;94683.78;;;11.95;93.63
51829;BME280;37881;48.024;8.774;2023-02-18T11:04:26;94688.16;;;11.92;91.88
51829;BME280;37881;48.024;8.774;2023-02-18T11:06:54;94679.91;;;12.37;89.33
51829;BME280;37881;48.024;8.774;2023-02-18T11:09:39;94683.78;;;12.44;89.19
51829;BME280;37881;48.024;8.774;2023-02-18T11:12:14;94678.88;;;12.21;87.87
51829;BME280;37881;48.024;8.774;2023-02-18T11:14:48;94680.44;;;12.59;84.15
51829;BME280;37881;48.024;8.774;2023-02-18T11:17:30;94670.13;;;12.29;85.85
51829;BME280;37881;48.024;8.774;2023-02-18T11:19:59;94673.38;;;12.17;87.31
51829;BME280;37881;48.024;8.774;2023-02-18T11:22:29;94673.16;;;12.42;85.44
51829;BME280;37881;48.024;8.774;2023-02-18T11:25:00;94674.13;;;12.63;84.58
51829;BME280;37881;48.024;8.774;2023-02-18T11:28:04;94676.34;;;12.75;82.77
51829;BME280;37881;48.024;8.774;2023-02-18T11:30:35;94677.66;;;12.63;82.31
51829;BME280;37881;48.024;8.774;2023-02-18T11:33:10;94682.34;;;13.01;79.64
51829;BME280;37881;48.024;8.774;2023-02-18T11:35:48;94678.81;;;13.00;77.99
51829;BME280;37881;48.024;8.774;2023-02-18T11:40:54;94675.78;;;12.87;80.03
51829;BME280;37881;48.024;8.774;2023-02-18T11:43:21;94667.34;;;13.02;79.26
51829;BME280;37881;48.024;8.774;2023-02-18T11:46:08;94669.66;;;12.76;80.63
51829;BME280;37881;48.024;8.774;2023-02-18T11:48:35;94663.09;;;13.58;77.22
51829;BME280;37881;48.024;8.774;2023-02-18T11:51:02;94660.41;;;13.24;76.87
51829;BME280;37881;48.024;8.774;2023-02-18T11:53:36;94649.50;;;13.95;73.74
51829;BME280;37881;48.024;8.774;2023-02-18T11:56:07;94647.75;;;15.48;68.40
51829;BME280;37881;48.024;8.774;2023-02-18T11:58:45;94647.13;;;16.26;63.08
51829;BME280;37881;48.024;8.774;2023-02-18T12:01:28;94634.78;;;15.82;63.60
51829;BME280;37881;48.024;8.774;2023-02-18T12:06:38;94623.69;;;16.89;57.13
51829;BME280;37881;48.024;8.774;2023-02-18T12:09:24;94616.91;;;15.50;60.85
51829;BME280;37881;48.024;8.774;2023-02-18T12:11:56;94615.34;;;15.49;61.88
51829;BME280;37881;48.024;8.774;2023-02-18T12:14:26;94616.19;;;16.44;58.21
51829;BME280;37881;48.024;8.774;2023-02-18T12:19:42;94602.84;;;15.77;61.38
51829;BME280;37881;48.024;8.774;2023-02-18T12:27:39;94597.03;;;15.71;58.45
51829;BME280;37881;48.024;8.774;2023-02-18T12:30:30;94601.72;;;14.65;62.43
51829;BME280;37881;48.024;8.774;2023-02-18T12:38:58;94588.16;;;14.31;63.21
51829;BME280;37881;48.024;8.774;2023-02-18T12:41:49;94578.06;;;14.64;62.34
51829;BME280;37881;48.024;8.774;2023-02-18T12:47:23;94586.94;;;14.32;62.86
51829;BME280;37881;48.024;8.774;2023-02-18T12:52:26;94588.69;;;13.55;66.24
51829;BME280;37881;48.024;8.774;2023-02-18T12:57:33;94587.88;;;13.27;67.72
51829;BME280;37881;48.024;8.774;2023-02-18T13:03:20;94590.44;;;13.42;68.20
51829;BME280;37881;48.024;8.774;2023-02-18T13:11:23;94584.06;;;13.95;66.11
51829;BME280;37881;48.024;8.774;2023-02-18T13:16:20;94579.81;;;13.67;66.62
51829;BME280;37881;48.024;8.774;2023-02-18T13:18:59;94566.63;;;13.78;66.08
51829;BME280;37881;48.024;8.774;2023-02-18T13:21:28;94571.00;;;13.52;66.80
51829;BME280;37881;48.024;8.774;2023-02-18T13:24:08;94578.53;;;13.72;66.79
51829;BME280;37881;48.024;8.774;2023-02-18T13:26:35;94571.72;;;13.56;66.79
51829;BME280;37881;48.024;8.774;2023-02-18T13:29:23;94569.78;;;13.26;68.19
51829;BME280;37881;48.024;8.774;2023-02-18T13:37:50;94566.50;;;12.81;69.51
51829;BME280;37881;48.024;8.774;2023-02-18T13:40:23;94562.25;;;12.76;69.38
51829;BME280;37881;48.024;8.774;2023-02-18T13:42:51;94570.63;;;12.65;69.88
51829;BME280;37881;48.024;8.774;2023-02-18T13:45:32;94563.81;;;13.04;68.44
51829;BME280;37881;48.024;8.774;2023-02-18T13:47:59;94559.47;;;12.76;69.48
51829;BME280;37881;48.024;8.774;2023-02-18T13:50:32;94557.75;;;12.86;68.82
51829;BME280;37881;48.024;8.774;2023-02-18T13:55:53;94558.81;;;12.95;69.21
51829;BME280;37881;48.024;8.774;2023-02-18T14:00:54;94555.25;;;12.68;70.58
51829;BME280;37881;48.024;8.774;2023-02-18T14:05:59;94567.88;;;12.65;71.26
51829;BME280;37881;48.024;8.774;2023-02-18T14:08:38;94559.19;;;12.36;72.24
51829;BME280;37881;48.024;8.774;2023-02-18T14:13:54;94551.16;;;12.14;73.63
51829;BME280;37881;48.024;8.774;2023-02-18T14:16:21;94552.78;;;12.12;74.70
51829;BME280;37881;48.024;8.774;2023-02-18T14:18:59;94546.00;;;12.20;73.48
51829;BME280;37881;48.024;8.774;2023-02-18T14:21:36;94547.31;;;12.08;74.36
51829;BME280;37881;48.024;8.774;2023-02-18T14:24:06;94560.16;;;12.18;74.28
51829;BME280;37881;48.024;8.774;2023-02-18T14:26:36;94548.00;;;12.16;74.23
51829;BME280;37881;48.024;8.774;2023-02-18T14:29:10;94549.25;;;12.11;76.39
51829;BME280;37881;48.024;8.774;2023-02-18T14:31:44;94542.03;;;12.55;74.46
51829;BME280;37881;48.024;8.774;2023-02-18T14:34:26;94554.53;;;12.64;73.45
51829;BME280;37881;48.024;8.774;2023-02-18T14:45:27;94545.44;;;13.21;68.83
51829;BME280;37881;48.024;8.774;2023-02-18T14:48:23;94561.00;;;12.81;69.77
51829;BME280;37881;48.024;8.774;2023-02-18T14:50:55;94556.41;;;12.97;69.44
51829;BME280;37881;48.024;8.774;2023-02-18T14:53:26;94541.97;;;12.59;69.58
51829;BME280;37881;48.024;8.774;2023-02-18T14:55:57;94546.94;;;12.41;71.28
51829;BME280;37881;48.024;8.774;2023-02-18T14:58:38;94546.88;;;12.75;69.93
51829;BME280;37881;48.024;8.774;2023-02-18T15:01:21;94552.78;;;12.12;71.87
51829;BME280;37881;48.024;8.774;2023-02-18T15:03:52;94541.81;;;12.43;70.69
51829;BME280;37881;48.024;8.774;2023-02-18T15:06:40;94533.78;;;12.21;71.12
51829;BME280;37881;48.024;8.774;2023-02-18T15:09:20;94548.16;;;12.39;70.68